createdAt,value
2023-08-13T00:05:16.739Z,94829.25
2023-08-13T00:11:36.575Z,94823.78
2023-08-13T00:18:16.460Z,94835.94
2023-08-13T00:20:57.439Z,94823.41
2023-08-13T00:23:52.055Z,94837.56
2023-08-13T00:26:21.719Z,94834.63
2023-08-13T00:35:41.494Z,94835.03
2023-08-13T01:46:36.233Z,94832.81
2023-08-13T02:10:24.246Z,94836.25
2023-08-13T02:54:42.157Z,94740.50
2023-08-13T02:57:08.961Z,94757.06
2023-08-13T02:59:35.696Z,94761.41
2023-08-13T03:02:02.447Z,94788.09
2023-08-13T03:04:29.269Z,94758.69
2023-08-13T03:46:24.598Z,94779.19
2023-08-13T03:48:51.534Z,94743.09
2023-08-13T03:51:18.294Z,94802.50
2023-08-13T03:53:45.137Z,94789.28
2023-08-13T03:56:11.770Z,94768.50
2023-08-13T03:58:39.692Z,94794.44
2023-08-13T04:01:07.056Z,94760.25
2023-08-13T04:03:34.138Z,94747.75
2023-08-13T04:06:03.739Z,94725.56
2023-08-13T04:08:30.664Z,94807.19
2023-08-13T04:10:57.538Z,94740.97
2023-08-13T04:13:24.253Z,94746.47
2023-08-13T04:15:51.042Z,94814.25
2023-08-13T04:30:07.385Z,94794.28
2023-08-13T04:32:37.808Z,94748.47
2023-08-13T04:35:05.247Z,94749.06
2023-08-13T04:37:32.167Z,94811.91
2023-08-13T04:39:59.297Z,94812.72
2023-08-13T04:42:26.025Z,94800.34
2023-08-13T04:44:52.887Z,94754.75
2023-08-13T04:47:19.607Z,94772.28
2023-08-13T04:49:46.450Z,94789.28
2023-08-13T04:52:13.455Z,94798.34
2023-08-13T04:54:41.909Z,94773.75
2023-08-13T04:57:09.639Z,94816.91
2023-08-13T04:59:36.606Z,94809.72
2023-08-13T05:02:03.196Z,94786.13
2023-08-13T05:04:29.820Z,94784.59
2023-08-13T05:06:56.665Z,94776.41
2023-08-13T05:09:23.509Z,94766.53
2023-08-13T05:59:20.507Z,94842.06
2023-08-13T06:01:49.623Z,94843.00
2023-08-13T06:07:24.300Z,94834.81
2023-08-13T06:09:51.477Z,94833.81
2023-08-13T06:12:42.885Z,94830.06
2023-08-13T06:24:31.294Z,94828.03
2023-08-13T06:30:11.090Z,94830.09
2023-08-13T06:32:38.598Z,94827.31
2023-08-13T06:46:02.417Z,94828.94
2023-08-13T07:20:27.561Z,94826.63
2023-08-13T07:23:16.974Z,94819.94
2023-08-13T07:29:21.959Z,94822.06
2023-08-13T07:32:34.140Z,94825.44
2023-08-13T07:44:41.918Z,94816.75
2023-08-13T07:47:08.456Z,94827.88
2023-08-13T07:49:35.022Z,94825.59
2023-08-13T07:52:01.866Z,94817.25
2023-08-13T07:54:29.735Z,94814.25
2023-08-13T07:56:56.252Z,94815.69
2023-08-13T07:59:22.848Z,94823.28
2023-08-13T08:01:50.331Z,94819.28
2023-08-13T08:04:16.880Z,94813.00
2023-08-13T08:06:43.977Z,94807.47
2023-08-13T08:09:11.010Z,94809.44
2023-08-13T08:11:37.523Z,94809.00
2023-08-13T08:14:04.225Z,94807.06
2023-08-13T08:16:30.820Z,94811.09
2023-08-13T08:18:57.332Z,94800.41
2023-08-13T08:21:23.855Z,94803.94
2023-08-13T08:23:50.401Z,94803.66
2023-08-13T08:26:16.959Z,94799.72
2023-08-13T08:28:43.557Z,94802.56
2023-08-13T08:31:10.280Z,94804.59
2023-08-13T08:33:36.958Z,94796.84
2023-08-13T08:36:03.585Z,94799.22
2023-08-13T08:38:30.118Z,94789.28
2023-08-13T08:40:57.354Z,94792.34
2023-08-13T08:43:24.759Z,94809.13
2023-08-13T08:45:51.242Z,94796.38
2023-08-13T08:48:18.500Z,94794.56
2023-08-13T08:50:45.247Z,94787.91
2023-08-13T08:53:11.750Z,94791.72
2023-08-13T08:55:38.234Z,94793.53
2023-08-13T08:58:05.434Z,94789.41
2023-08-13T09:00:32.010Z,94793.63
2023-08-13T09:02:58.763Z,94789.78
2023-08-13T09:05:25.488Z,94780.44
2023-08-13T09:07:52.015Z,94776.72
2023-08-13T09:10:18.692Z,94768.69
2023-08-13T09:12:45.388Z,94775.91
2023-08-13T09:15:12.690Z,94773.25
2023-08-13T09:17:39.632Z,94772.28
2023-08-13T09:20:10.911Z,94766.28
2023-08-13T09:22:37.517Z,94759.50
2023-08-13T09:25:04.271Z,94753.47
2023-08-13T09:27:31.644Z,94747.63
2023-08-13T09:30:04.242Z,94753.44
2023-08-13T09:32:31.184Z,94752.13
2023-08-13T09:34:58.775Z,94739.25
2023-08-13T09:37:26.568Z,94733.09
2023-08-13T09:39:53.301Z,94736.06
2023-08-13T09:42:19.819Z,94733.13
2023-08-13T09:44:46.389Z,94731.28
2023-08-13T09:47:14.728Z,94730.75
2023-08-13T09:49:41.434Z,94726.34
2023-08-13T09:52:09.777Z,94730.75
2023-08-13T09:54:40.000Z,94722.75
2023-08-13T09:57:11.599Z,94720.81
2023-08-13T09:59:38.172Z,94717.66
2023-08-13T10:02:08.760Z,94722.19
2023-08-13T10:04:36.049Z,94712.31
2023-08-13T10:07:02.602Z,94708.88
2023-08-13T10:09:29.132Z,94716.13
2023-08-13T10:11:55.649Z,94699.75
2023-08-13T10:14:22.201Z,94706.56
2023-08-13T10:16:48.783Z,94706.94
2023-08-13T10:19:16.531Z,94701.38
2023-08-13T10:21:43.900Z,94701.78
2023-08-13T10:24:12.409Z,94691.78
2023-08-13T10:26:43.000Z,94697.41
2023-08-13T10:29:17.284Z,94703.78
2023-08-13T10:32:01.439Z,94700.19
2023-08-13T10:34:40.867Z,94693.81
2023-08-13T10:37:20.700Z,94687.34
2023-08-13T10:39:56.235Z,94686.50
2023-08-13T10:42:29.088Z,94686.06
2023-08-13T10:45:02.267Z,94690.03
2023-08-13T10:47:57.407Z,94685.22
2023-08-13T10:50:28.318Z,94681.97
2023-08-13T10:53:05.535Z,94672.34
2023-08-13T10:55:33.850Z,94677.91
2023-08-13T10:58:00.378Z,94668.25
2023-08-13T11:00:27.801Z,94673.81
2023-08-13T11:02:57.878Z,94674.59
2023-08-13T11:05:24.685Z,94673.38
2023-08-13T11:07:52.075Z,94670.16
2023-08-13T11:10:19.599Z,94656.19
2023-08-13T11:12:47.256Z,94666.09
2023-08-13T11:15:14.511Z,94665.66
2023-08-13T11:17:42.586Z,94658.09
2023-08-13T11:20:10.828Z,94654.44
2023-08-13T11:22:37.332Z,94655.97
2023-08-13T11:25:03.997Z,94652.78
2023-08-13T11:27:30.679Z,94654.38
2023-08-13T11:29:57.362Z,94653.97
2023-08-13T11:32:24.439Z,94653.09
2023-08-13T11:34:51.205Z,94651.84
2023-08-13T11:37:18.115Z,94641.50
2023-08-13T11:39:44.619Z,94647.44
2023-08-13T11:42:11.991Z,94647.41
2023-08-13T11:44:38.571Z,94644.22
2023-08-13T11:47:05.711Z,94652.56
2023-08-13T11:49:33.049Z,94648.03
2023-08-13T11:51:59.747Z,94644.84
2023-08-13T11:54:26.454Z,94643.13
2023-08-13T11:56:53.216Z,94642.66
2023-08-13T11:59:28.214Z,94624.38
2023-08-13T12:01:55.835Z,94635.47
2023-08-13T12:04:23.223Z,94640.13
2023-08-13T12:06:51.995Z,94637.22
2023-08-13T12:09:19.265Z,94637.97
2023-08-13T12:11:45.833Z,94632.03
2023-08-13T12:14:12.483Z,94627.13
2023-08-13T12:16:39.102Z,94631.94
2023-08-13T12:19:18.027Z,94633.47
2023-08-13T12:21:44.399Z,94631.50
2023-08-13T12:24:10.948Z,94623.53
2023-08-13T12:26:41.206Z,94617.53
2023-08-13T12:29:27.776Z,94610.66
2023-08-13T12:31:54.696Z,94613.00
2023-08-13T12:34:21.288Z,94618.13
2023-08-13T12:36:47.922Z,94614.13
2023-08-13T12:39:14.530Z,94613.69
2023-08-13T12:41:41.108Z,94616.47
2023-08-13T12:44:08.582Z,94601.53
2023-08-13T12:46:36.005Z,94601.13
2023-08-13T12:51:55.787Z,94607.63
2023-08-13T12:54:22.412Z,94602.09
2023-08-13T12:56:48.978Z,94602.09
2023-08-13T12:59:19.066Z,94602.88
2023-08-13T13:01:45.877Z,94600.88
2023-08-13T13:12:42.883Z,94591.09
2023-08-13T13:15:09.990Z,94590.41
2023-08-13T13:17:36.625Z,94594.81
2023-08-13T13:20:11.529Z,94593.19
2023-08-13T13:22:38.858Z,94580.47
2023-08-13T13:25:05.763Z,94570.50
2023-08-13T13:27:32.319Z,94575.28
2023-08-13T13:29:58.873Z,94583.88
2023-08-13T13:32:25.573Z,94580.25
2023-08-13T13:34:55.740Z,94573.81
2023-08-13T13:37:22.298Z,94525.78
2023-08-13T13:39:48.796Z,94574.56
2023-08-13T13:42:15.577Z,94564.66
2023-08-13T13:44:42.399Z,94565.47
2023-08-13T13:47:09.077Z,94551.41
2023-08-13T13:49:35.573Z,94560.09
2023-08-13T13:52:02.121Z,94544.84
2023-08-13T14:40:27.807Z,94530.47
2023-08-13T14:47:20.399Z,94528.56
2023-08-13T14:49:49.527Z,94531.75
2023-08-13T14:56:13.354Z,94534.75
2023-08-13T15:28:37.382Z,94503.59
2023-08-13T15:31:06.728Z,94519.56
2023-08-13T15:33:33.325Z,94527.47
2023-08-13T15:38:47.217Z,94484.00
2023-08-13T15:41:14.026Z,94477.88
2023-08-13T15:43:40.571Z,94511.06
2023-08-13T15:46:07.130Z,94527.75
2023-08-13T15:48:33.664Z,94523.31
2023-08-13T15:51:00.302Z,94488.97
2023-08-13T15:53:26.878Z,94486.09
2023-08-13T15:56:03.445Z,94518.00
2023-08-13T15:58:29.944Z,94510.75
2023-08-13T16:00:56.435Z,94517.75
2023-08-13T16:04:05.648Z,94529.28
2023-08-13T16:06:56.010Z,94535.19
2023-08-13T16:15:13.949Z,94550.44
2023-08-13T16:17:41.441Z,94551.56
2023-08-13T16:20:12.667Z,94539.78
2023-08-13T16:22:40.706Z,94530.81
2023-08-13T16:25:08.412Z,94511.16
2023-08-13T16:33:11.107Z,94551.69
2023-08-13T17:16:30.573Z,94537.56
2023-08-13T17:19:38.284Z,94543.84
2023-08-13T17:34:10.222Z,94542.34
2023-08-13T17:39:40.385Z,94549.78
2023-08-13T17:47:54.236Z,94561.94
2023-08-13T17:56:39.484Z,94555.13
2023-08-13T17:59:06.550Z,94564.47
2023-08-13T18:01:33.096Z,94554.75
2023-08-13T18:03:59.620Z,94558.56
2023-08-13T18:06:26.134Z,94562.41
2023-08-13T18:09:00.778Z,94559.91
2023-08-13T18:11:31.743Z,94569.22
2023-08-13T18:13:58.238Z,94572.69
2023-08-13T18:16:24.777Z,94576.88
2023-08-13T18:18:51.290Z,94580.69
2023-08-13T18:21:17.778Z,94577.38
2023-08-13T18:23:44.285Z,94578.66
2023-08-13T18:26:10.810Z,94577.66
2023-08-13T18:28:37.311Z,94579.03
2023-08-13T18:31:06.015Z,94571.94
2023-08-13T18:33:32.555Z,94568.41
2023-08-13T18:36:00.365Z,94572.13
2023-08-13T18:38:26.891Z,94565.34
2023-08-13T18:40:53.422Z,94570.06
2023-08-13T18:43:19.906Z,94571.41
2023-08-13T18:45:46.393Z,94572.00
2023-08-13T18:48:12.872Z,94570.97
2023-08-13T18:50:39.358Z,94574.53
2023-08-13T18:53:05.849Z,94575.03
2023-08-13T18:55:32.526Z,94569.28
2023-08-13T18:57:59.074Z,94571.22
2023-08-13T19:00:25.621Z,94572.63
2023-08-13T19:02:52.202Z,94581.44
2023-08-13T19:05:18.767Z,94579.38
2023-08-13T19:07:45.281Z,94590.47
2023-08-13T19:10:11.820Z,94587.59
2023-08-13T19:12:38.364Z,94589.44
2023-08-13T19:15:05.492Z,94585.63
2023-08-13T19:17:32.047Z,94602.38
2023-08-13T19:19:58.603Z,94600.84
2023-08-13T19:22:25.162Z,94590.75
2023-08-13T19:24:51.720Z,94589.69
2023-08-13T19:27:18.200Z,94587.66
2023-08-13T19:29:44.745Z,94587.16
2023-08-13T19:32:11.245Z,94588.03
2023-08-13T19:34:37.954Z,94590.75
2023-08-13T19:37:04.567Z,94593.44
2023-08-13T19:39:31.060Z,94593.47
2023-08-13T19:41:57.605Z,94605.97
2023-08-13T19:44:37.196Z,94615.72
2023-08-13T19:47:05.132Z,94612.81
2023-08-13T19:49:31.620Z,94617.66
2023-08-13T19:51:58.835Z,94612.69
2023-08-13T19:54:25.607Z,94619.50
2023-08-13T19:56:52.129Z,94619.03
2023-08-13T19:59:32.870Z,94628.91
2023-08-13T20:05:18.702Z,94625.34
2023-08-13T20:07:46.688Z,94634.59
2023-08-13T20:10:20.178Z,94635.25
2023-08-13T20:12:56.159Z,94640.47
2023-08-13T20:15:41.289Z,94636.31
2023-08-13T20:18:16.626Z,94635.50
2023-08-13T20:21:15.032Z,94633.72
2023-08-13T20:23:58.599Z,94635.53
2023-08-13T20:26:49.678Z,94628.94
2023-08-13T20:29:33.710Z,94634.91
2023-08-13T20:32:04.207Z,94633.16
2023-08-13T20:37:41.886Z,94630.28
2023-08-13T20:43:11.037Z,94628.34
2023-08-13T20:45:48.315Z,94633.38
2023-08-13T20:48:39.310Z,94630.47
2023-08-13T20:54:01.144Z,94629.34
2023-08-13T20:59:52.238Z,94648.41
2023-08-13T21:02:27.982Z,94640.97
2023-08-13T21:05:18.954Z,94657.16
2023-08-13T21:08:13.167Z,94652.13
2023-08-13T21:10:42.093Z,94657.16
2023-08-13T21:13:11.786Z,94648.72
2023-08-13T21:15:54.974Z,94653.91
2023-08-13T21:18:28.142Z,94649.38
2023-08-13T21:24:00.052Z,94656.47
2023-08-13T21:30:02.853Z,94651.78
2023-08-13T21:35:24.929Z,94637.78
2023-08-13T21:37:51.451Z,94628.28
2023-08-13T21:40:18.988Z,94627.00
2023-08-13T21:42:45.551Z,94629.75
2023-08-13T21:45:12.046Z,94611.03
2023-08-13T21:47:38.600Z,94596.03
2023-08-13T21:50:05.697Z,94610.53
2023-08-13T21:52:32.218Z,94572.97
2023-08-13T21:54:58.705Z,94587.50
2023-08-13T21:57:25.190Z,94612.97
2023-08-13T21:59:51.884Z,94610.22
2023-08-13T22:02:18.635Z,94595.22
2023-08-13T22:04:45.518Z,94617.16
2023-08-13T22:07:12.071Z,94622.00
2023-08-13T22:09:38.570Z,94614.13
2023-08-13T22:12:05.252Z,94626.06
2023-08-13T22:14:31.806Z,94630.41
2023-08-13T22:16:58.324Z,94589.13
2023-08-13T22:19:26.827Z,94635.41
2023-08-13T22:21:53.337Z,94609.91
2023-08-13T22:24:19.859Z,94645.75
2023-08-13T22:26:46.383Z,94629.75
2023-08-13T22:29:12.873Z,94633.31
2023-08-13T22:31:39.405Z,94646.41
2023-08-13T22:34:05.959Z,94635.72
2023-08-13T22:36:32.501Z,94639.13
2023-08-13T22:38:58.999Z,94630.75
2023-08-13T22:41:26.573Z,94606.03
2023-08-13T22:43:53.089Z,94629.13
2023-08-13T22:46:19.691Z,94631.88
2023-08-13T22:48:46.243Z,94616.69
2023-08-13T22:51:12.854Z,94627.66
2023-08-13T22:53:39.399Z,94623.13
2023-08-13T22:56:05.903Z,94592.19
2023-08-13T22:58:32.379Z,94616.38
2023-08-13T23:00:59.026Z,94627.66
2023-08-13T23:03:28.393Z,94625.56
2023-08-13T23:05:55.493Z,94630.75
2023-08-13T23:08:22.424Z,94633.63
2023-08-13T23:10:48.922Z,94634.44
2023-08-13T23:13:15.429Z,94637.66
2023-08-13T23:15:41.926Z,94631.38
2023-08-13T23:18:08.563Z,94632.84
2023-08-13T23:20:35.204Z,94629.78
2023-08-13T23:23:02.039Z,94631.25
2023-08-13T23:25:29.516Z,94604.44
2023-08-13T23:27:56.001Z,94639.75
2023-08-13T23:30:22.502Z,94642.38
2023-08-13T23:32:49.128Z,94628.47
2023-08-13T23:35:15.645Z,94603.81
2023-08-13T23:37:42.178Z,94641.72
2023-08-13T23:40:09.088Z,94628.66
2023-08-13T23:42:35.656Z,94635.44
2023-08-13T23:45:02.182Z,94631.06
2023-08-13T23:47:28.788Z,94629.28
2023-08-13T23:49:55.314Z,94639.47
2023-08-13T23:52:21.812Z,94632.03
2023-08-13T23:54:48.313Z,94628.00
2023-08-13T23:57:14.850Z,94640.59
2023-08-13T23:59:41.343Z,94641.88
